Time;durP1;ratioP1;P1;durP2;ratioP2;P2;SDS_P1;SDS_P2;PMS_P1;PMS_P2;Temp;Humidity;BMP_temperature;BMP_pressure;BME280_temperature;BME280_humidity;BME280_pressure;Samples;Min_cycle;Max_cycle;Signal;HPM_P1;HPM_P2
2022/05/31 00:00:21;;;;;;;;;;;;;;;21.45;28.33;97763.44;4996606;28;1785;-77
2022/05/31 00:02:46;;;;;;;;;;;;;;;21.24;28.85;97762.81;5000591;28;1981;-76
2022/05/31 00:05:11;;;;;;;;;;;;;;;21.24;28.85;97776.97;5000684;28;968;-77
2022/05/31 00:07:37;;;;;;;;;;;;;;;21.22;28.66;97773.78;5000846;28;897;-76
2022/05/31 00:10:03;;;;;;;;;;;;;;;21.08;28.92;97763.66;4996972;28;1684;-76
2022/05/31 00:12:29;;;;;;;;;;;;;;;21.65;28.25;97777.41;4998788;28;1771;-77
2022/05/31 00:14:54;;;;;;;;;;;;;;;21.89;27.79;97775.06;5000459;28;1004;-76
2022/05/31 00:17:20;;;;;;;;;;;;;;;21.76;27.84;97778.69;5000305;28;1151;-77
2022/05/31 00:19:46;;;;;;;;;;;;;;;21.38;28.63;97781.44;4998340;28;1742;-76
2022/05/31 00:22:12;;;;;;;;;;;;;;;21.35;28.57;97775.88;5000538;28;1973;-77
2022/05/31 00:24:39;;;;;;;;;;;;;;;21.31;28.78;97776.78;4997039;28;1755;-76
2022/05/31 00:27:05;;;;;;;;;;;;;;;21.39;28.57;97783.03;4966140;28;1023;-76
2022/05/31 00:29:31;;;;;;;;;;;;;;;21.27;28.71;97781.72;4998331;28;1549;-76
2022/05/31 00:31:56;;;;;;;;;;;;;;;21.16;28.90;97786.09;5000137;28;947;-76
2022/05/31 00:34:22;;;;;;;;;;;;;;;21.65;28.22;97783.88;4998756;28;1372;-76
2022/05/31 00:36:48;;;;;;;;;;;;;;;21.85;27.81;97781.63;4981885;28;1168;-76
2022/05/31 00:39:14;;;;;;;;;;;;;;;21.71;28.16;97775.59;4996212;28;1487;-76
2022/05/31 00:41:39;;;;;;;;;;;;;;;21.38;28.54;97774.97;4997728;28;1976;-76
2022/05/31 00:44:06;;;;;;;;;;;;;;;21.22;28.79;97778.66;4997543;28;988;-76
2022/05/31 00:46:44;;;;;;;;;;;;;;;21.12;28.77;97780.53;4981603;28;1111;-76
2022/05/31 00:49:09;;;;;;;;;;;;;;;21.03;28.87;97783.22;4995327;28;1754;-77
2022/05/31 00:51:39;;;;;;;;;;;;;;;21.06;28.91;97777.47;4997829;28;942;-77
2022/05/31 00:54:05;;;;;;;;;;;;;;;21.39;28.55;97793.53;4981223;28;1262;-76
2022/05/31 00:56:31;;;;;;;;;;;;;;;21.75;27.87;97794.06;4981501;28;1084;-76
2022/05/31 00:58:59;;;;;;;;;;;;;;;21.92;27.65;97797.63;4995764;28;1638;-76
2022/05/31 01:01:24;;;;;;;;;;;;;;;21.69;28.00;97795.88;4976902;28;1907;-77
2022/05/31 01:03:50;;;;;;;;;;;;;;;21.40;28.25;97795.13;4961205;28;1187;-77
2022/05/31 01:06:15;;;;;;;;;;;;;;;21.36;28.39;97791.63;4962089;28;971;-77
2022/05/31 01:08:44;;;;;;;;;;;;;;;21.34;28.54;97797.72;4977846;28;1221;-77
2022/05/31 01:11:39;;;;;;;;;;;;;;;21.48;28.50;97791.66;4963764;28;1712;-76
2022/05/31 01:14:43;;;;;;;;;;;;;;;21.96;27.64;97797.50;4939363;29;944;-76
2022/05/31 01:17:28;;;;;;;;;;;;;;;21.56;28.19;97793.03;4910753;29;1835;-77
2022/05/31 01:20:23;;;;;;;;;;;;;;;21.37;28.35;97796.03;4852136;29;1000;-77
2022/05/31 01:23:00;;;;;;;;;;;;;;;21.24;28.56;97805.28;4864003;29;1965;-76
2022/05/31 01:25:48;;;;;;;;;;;;;;;21.18;28.36;97795.72;4863939;29;1127;-77
2022/05/31 01:28:32;;;;;;;;;;;;;;;21.08;28.67;97796.81;4863222;29;1729;-76
2022/05/31 01:31:01;;;;;;;;;;;;;;;21.55;28.02;97796.31;4863716;29;1053;-76
2022/05/31 01:33:31;;;;;;;;;;;;;;;22.03;27.13;97806.56;4881046;29;1115;-77
2022/05/31 01:36:01;;;;;;;;;;;;;;;21.92;27.12;97805.34;4882097;29;943;-76
2022/05/31 01:38:44;;;;;;;;;;;;;;;21.42;28.06;97803.97;4859806;29;1692;-77
2022/05/31 01:41:19;;;;;;;;;;;;;;;21.29;28.62;97807.53;4860316;29;1911;-76
2022/05/31 01:43:45;;;;;;;;;;;;;;;21.25;28.53;97806.84;4860156;29;1650;-77
2022/05/31 01:46:12;;;;;;;;;;;;;;;21.36;28.41;97805.78;4863686;29;1019;-76
2022/05/31 01:48:37;;;;;;;;;;;;;;;21.10;28.73;97800.00;4847733;29;1686;-76
2022/05/31 01:51:04;;;;;;;;;;;;;;;21.72;27.82;97809.16;4848331;29;1146;-77
2022/05/31 01:53:29;;;;;;;;;;;;;;;21.87;27.54;97805.91;4847930;29;1010;-76
2022/05/31 01:55:55;;;;;;;;;;;;;;;22.02;27.41;97801.34;4876480;29;1111;-76
2022/05/31 01:58:22;;;;;;;;;;;;;;;21.47;28.37;97806.25;4941075;29;1624;-77
2022/05/31 02:00:47;;;;;;;;;;;;;;;21.17;28.68;97811.09;4941706;29;1152;-77
2022/05/31 02:03:13;;;;;;;;;;;;;;;21.05;28.72;97817.53;4941605;29;1914;-77
2022/05/31 02:05:48;;;;;;;;;;;;;;;21.14;29.04;97823.34;4941659;29;1128;-77
2022/05/31 02:08:14;;;;;;;;;;;;;;;21.03;29.13;97814.31;4940376;28;1583;-76
2022/05/31 02:10:40;;;;;;;;;;;;;;;21.02;29.08;97822.03;4995606;28;1584;-76
2022/05/31 02:13:07;;;;;;;;;;;;;;;21.10;28.88;97822.63;4997031;28;1423;-77
2022/05/31 02:15:51;;;;;;;;;;;;;;;21.71;28.32;97816.06;4996314;28;1144;-74
2022/05/31 02:18:17;;;;;;;;;;;;;;;22.03;27.56;97825.63;4995694;28;1618;-74
2022/05/31 02:21:15;;;;;;;;;;;;;;;21.64;28.21;97827.59;4984009;28;1907;-74
2022/05/31 02:23:40;;;;;;;;;;;;;;;21.43;28.49;97822.56;4997184;28;1017;-74
2022/05/31 02:26:06;;;;;;;;;;;;;;;21.39;28.52;97816.97;4998148;28;1009;-74
2022/05/31 02:28:31;;;;;;;;;;;;;;;21.24;28.98;97827.91;4995778;28;1690;-74
2022/05/31 02:30:57;;;;;;;;;;;;;;;21.33;28.85;97830.09;4995882;28;1682;-76
2022/05/31 02:33:22;;;;;;;;;;;;;;;21.63;28.38;97826.00;4997901;28;898;-76
2022/05/31 02:35:47;;;;;;;;;;;;;;;21.92;28.04;97831.63;4998002;28;1092;-77
2022/05/31 02:38:15;;;;;;;;;;;;;;;21.24;28.27;97788.28;4995206;28;1654;-77
2022/05/31 02:40:41;;;;;;;;;;;;;;;21.32;28.92;97829.31;4996707;28;1079;-76
2022/05/31 02:43:07;;;;;;;;;;;;;;;21.21;28.87;97828.78;4997833;28;1915;-76
2022/05/31 02:45:33;;;;;;;;;;;;;;;21.22;28.88;97841.69;4978627;28;1725;-76
2022/05/31 02:47:59;;;;;;;;;;;;;;;21.20;29.06;97847.00;4996591;28;1431;-76
2022/05/31 02:50:25;;;;;;;;;;;;;;;21.17;28.94;97833.75;4979233;28;982;-77
2022/05/31 02:52:51;;;;;;;;;;;;;;;21.64;28.22;97835.28;4980473;28;1104;-77
2022/05/31 02:55:16;;;;;;;;;;;;;;;21.93;28.00;97836.03;4977668;28;1646;-77
2022/05/31 02:58:00;;;;;;;;;;;;;;;21.70;28.10;97830.66;4996331;28;917;-76
2022/05/31 03:00:44;;;;;;;;;;;;;;;21.47;28.36;97834.56;4997325;28;855;-76
2022/05/31 03:03:28;;;;;;;;;;;;;;;21.29;28.89;97837.84;4994963;28;1903;-77
2022/05/31 03:06:12;;;;;;;;;;;;;;;21.12;28.95;97834.28;4997240;28;926;-76
2022/05/31 03:08:42;;;;;;;;;;;;;;;21.14;29.19;97837.47;4995750;28;1243;-76
2022/05/31 03:11:22;;;;;;;;;;;;;;;21.26;29.24;97836.72;4996286;28;1105;-77
2022/05/31 03:13:48;;;;;;;;;;;;;;;21.70;28.19;97842.78;4977607;28;1694;-76
2022/05/31 03:16:13;;;;;;;;;;;;;;;22.02;27.50;97846.69;4994804;28;1085;-77
2022/05/31 03:18:40;;;;;;;;;;;;;;;22.15;27.53;97843.91;4995070;28;1001;-77
2022/05/31 03:21:08;;;;;;;;;;;;;;;22.25;27.16;97843.56;4937013;29;1232;-77
2022/05/31 03:23:43;;;;;;;;;;;;;;;21.57;28.42;97851.25;4951322;28;1967;-77
2022/05/31 03:26:10;;;;;;;;;;;;;;;21.44;28.76;97853.22;4953011;28;1617;-77
2022/05/31 03:28:35;;;;;;;;;;;;;;;21.31;28.78;97850.38;4936903;29;1186;-77
2022/05/31 03:31:01;;;;;;;;;;;;;;;21.34;28.73;97859.97;4921461;29;989;-76
2022/05/31 03:33:28;;;;;;;;;;;;;;;21.28;28.82;97851.22;4926099;29;1673;-76
2022/05/31 03:35:53;;;;;;;;;;;;;;;21.12;29.22;97858.97;4937128;29;1126;-77
2022/05/31 03:38:27;;;;;;;;;;;;;;;21.24;29.11;97856.19;4949805;29;1683;-77
2022/05/31 03:40:58;;;;;;;;;;;;;;;21.17;29.05;97862.03;4936821;29;1499;-77
2022/05/31 03:43:45;;;;;;;;;;;;;;;21.45;28.62;97857.69;4916908;29;1731;-76
2022/05/31 03:46:20;;;;;;;;;;;;;;;21.82;28.37;97867.50;4936667;29;975;-77
2022/05/31 03:49:03;;;;;;;;;;;;;;;21.70;28.08;97865.44;4923243;29;960;-77
2022/05/31 03:51:46;;;;;;;;;;;;;;;21.36;29.02;97868.84;4917482;29;1301;-76
2022/05/31 03:54:25;;;;;;;;;;;;;;;21.33;29.22;97867.69;4900341;29;1984;-77
2022/05/31 03:57:17;;;;;;;;;;;;;;;21.24;29.56;97873.19;4861359;29;904;-77
2022/05/31 03:59:49;;;;;;;;;;;;;;;21.26;29.66;97870.69;4860370;29;1285;-77
2022/05/31 04:02:14;;;;;;;;;;;;;;;21.20;29.57;97871.69;4845514;29;2006;-77
2022/05/31 04:04:40;;;;;;;;;;;;;;;21.19;29.82;97867.25;4861046;29;1727;-77
2022/05/31 04:07:06;;;;;;;;;;;;;;;21.25;29.49;97874.75;4846048;29;1244;-76
2022/05/31 04:09:33;;;;;;;;;;;;;;;21.19;29.65;97879.38;4861527;29;990;-76
2022/05/31 04:11:59;;;;;;;;;;;;;;;21.10;30.00;97875.59;4845959;29;1301;-77
2022/05/31 04:14:43;;;;;;;;;;;;;;;21.31;30.11;97875.84;4879456;29;1036;-77
2022/05/31 04:17:09;;;;;;;;;;;;;;;21.87;28.71;97873.88;4898906;29;1244;-77
2022/05/31 04:19:36;;;;;;;;;;;;;;;22.01;28.46;97876.25;4898584;29;1643;-76
2022/05/31 04:22:01;;;;;;;;;;;;;;;21.49;29.09;97878.16;4904048;29;1911;-77
2022/05/31 04:24:27;;;;;;;;;;;;;;;21.40;29.46;97874.38;4917404;29;1128;-77
2022/05/31 04:27:16;;;;;;;;;;;;;;;21.23;29.46;97860.25;4894423;29;1021;-77
2022/05/31 04:30:11;;;;;;;;;;;;;;;21.14;29.94;97870.63;4879525;29;987;-76
2022/05/31 04:32:55;;;;;;;;;;;;;;;21.13;30.07;97877.53;4879549;29;899;-77
2022/05/31 04:35:28;;;;;;;;;;;;;;;21.05;30.04;97871.28;4827541;29;1215;-77
2022/05/31 04:37:53;;;;;;;;;;;;;;;20.95;30.17;97875.16;4806704;29;1124;-76
2022/05/31 04:40:36;;;;;;;;;;;;;;;21.20;29.88;97875.31;4809318;29;1672;-76
2022/05/31 04:43:17;;;;;;;;;;;;;;;21.58;29.73;97874.69;4791235;30;1993;-76
2022/05/31 04:46:10;;;;;;;;;;;;;;;21.84;29.05;97867.84;4791363;29;959;-76
2022/05/31 04:48:41;;;;;;;;;;;;;;;21.70;28.93;97876.75;4791107;29;946;-77
2022/05/31 04:51:07;;;;;;;;;;;;;;;21.36;29.49;97883.00;4773183;30;1249;-77
2022/05/31 04:53:50;;;;;;;;;;;;;;;21.40;29.49;97886.53;4773543;30;1095;-76
2022/05/31 04:56:39;;;;;;;;;;;;;;;21.10;30.32;97890.53;4720610;30;1366;-77
2022/05/31 04:59:07;;;;;;;;;;;;;;;21.27;29.86;97889.25;4721443;30;1229;-77
2022/05/31 05:01:33;;;;;;;;;;;;;;;21.25;29.85;97894.56;4751248;30;1994;-77
2022/05/31 05:04:01;;;;;;;;;;;;;;;21.34;29.84;97885.47;4763499;30;1389;-77
2022/05/31 05:06:29;;;;;;;;;;;;;;;21.30;30.29;97887.63;4745893;30;1468;-77
2022/05/31 05:08:55;;;;;;;;;;;;;;;21.20;30.50;97894.31;4770256;30;1483;-77
2022/05/31 05:11:21;;;;;;;;;;;;;;;21.24;30.29;97898.66;4773181;30;1062;-77
2022/05/31 05:13:58;;;;;;;;;;;;;;;21.23;30.31;97899.06;4723820;30;1088;-76
2022/05/31 05:16:44;;;;;;;;;;;;;;;21.15;30.35;97898.47;4737147;30;1047;-77
2022/05/31 05:19:09;;;;;;;;;;;;;;;21.61;30.00;97902.13;4714272;30;1441;-76
2022/05/31 05:21:35;;;;;;;;;;;;;;;21.93;29.33;97903.22;4719817;30;1991;-77
2022/05/31 05:24:01;;;;;;;;;;;;;;;21.66;29.79;97907.22;4719726;30;1418;-77
2022/05/31 05:26:32;;;;;;;;;;;;;;;21.51;30.23;97908.88;4719810;30;951;-77
2022/05/31 05:32:13;;;;;;;;;;;;;;;21.30;30.66;97911.03;4754795;30;1203;-77
2022/05/31 05:35:02;;;;;;;;;;;;;;;21.21;30.44;97910.84;4737066;30;1041;-77
2022/05/31 05:37:29;;;;;;;;;;;;;;;21.29;30.36;97920.72;4737140;30;1143;-77
2022/05/31 05:39:54;;;;;;;;;;;;;;;21.28;30.53;97919.13;4752275;30;1357;-76
2022/05/31 05:42:42;;;;;;;;;;;;;;;21.25;30.78;97920.03;4754421;30;1903;-77
2022/05/31 05:45:10;;;;;;;;;;;;;;;21.12;30.83;97916.34;4772199;30;1002;-76
2022/05/31 05:47:36;;;;;;;;;;;;;;;21.20;31.07;97920.56;4808339;29;1108;-76
2022/05/31 05:50:02;;;;;;;;;;;;;;;21.79;30.01;97925.03;4832756;29;928;-77
2022/05/31 05:52:48;;;;;;;;;;;;;;;22.07;29.42;97928.28;4826443;29;976;-76
2022/05/31 05:55:32;;;;;;;;;;;;;;;21.49;30.62;97928.31;4829392;29;911;-77
2022/05/31 05:58:20;;;;;;;;;;;;;;;21.35;30.90;97928.69;4862886;29;1010;-76
2022/05/31 06:01:05;;;;;;;;;;;;;;;21.27;31.18;97923.22;4862985;29;946;-77
2022/05/31 06:03:40;;;;;;;;;;;;;;;21.40;31.04;97928.97;4846895;29;1974;-77
2022/05/31 06:06:07;;;;;;;;;;;;;;;21.35;31.01;97928.69;4829122;29;1214;-77
2022/05/31 06:08:35;;;;;;;;;;;;;;;21.36;30.91;97935.97;4825639;29;1064;-76
2022/05/31 06:11:17;;;;;;;;;;;;;;;21.25;31.18;97920.03;4808838;29;1414;-77
2022/05/31 06:14:02;;;;;;;;;;;;;;;21.31;31.09;97928.81;4789536;30;1226;-76
2022/05/31 06:16:31;;;;;;;;;;;;;;;21.21;31.20;97925.00;4771734;30;1162;-76
2022/05/31 06:18:58;;;;;;;;;;;;;;;21.85;30.97;97928.91;4778130;30;1101;-76
2022/05/31 06:21:24;;;;;;;;;;;;;;;21.94;30.48;97933.94;4771405;30;1904;-77
2022/05/31 06:23:53;;;;;;;;;;;;;;;21.65;30.92;97936.78;4742447;30;1150;-77
2022/05/31 06:26:19;;;;;;;;;;;;;;;21.59;31.24;97927.22;4718617;30;1129;-76
2022/05/31 06:28:54;;;;;;;;;;;;;;;21.41;31.79;97932.59;4705133;30;1115;-76
2022/05/31 06:31:19;;;;;;;;;;;;;;;21.31;31.67;97932.44;4701176;30;1224;-77
2022/05/31 06:33:45;;;;;;;;;;;;;;;21.31;31.68;97935.28;4686717;30;1454;-76
2022/05/31 06:36:11;;;;;;;;;;;;;;;21.45;31.55;97941.78;4614392;30;1181;-77
2022/05/31 06:38:37;;;;;;;;;;;;;;;21.33;31.89;97935.59;4664939;30;1455;-74
2022/05/31 06:41:04;;;;;;;;;;;;;;;21.38;31.45;97936.31;4666387;30;1123;-74
2022/05/31 06:43:30;;;;;;;;;;;;;;;21.41;31.46;97938.25;4666793;30;1977;-74
2022/05/31 06:46:14;;;;;;;;;;;;;;;21.27;31.77;97928.06;4666496;30;1078;-76
2022/05/31 06:48:59;;;;;;;;;;;;;;;21.19;31.59;97927.47;4655009;30;951;-77
2022/05/31 06:57:49;;;;;;;;;;;;;;;21.35;31.12;97928.69;4700653;30;1003;-77
2022/05/31 07:00:26;;;;;;;;;;;;;;;21.14;31.19;97930.84;4686390;30;1176;-77
2022/05/31 07:02:54;;;;;;;;;;;;;;;21.23;31.16;97925.34;4735301;30;1924;-77
2022/05/31 07:05:20;;;;;;;;;;;;;;;21.28;30.88;97929.66;4789133;30;1162;-77
2022/05/31 07:07:46;;;;;;;;;;;;;;;21.55;31.27;97937.84;4784506;29;1985;-76
2022/05/31 07:10:30;;;;;;;;;;;;;;;21.79;31.07;97930.72;4809992;29;1007;-76
2022/05/31 07:13:24;;;;;;;;;;;;;;;21.91;31.06;97931.19;4788772;30;1121;-77
2022/05/31 07:15:52;;;;;;;;;;;;;;;21.65;31.09;97933.94;4781497;30;1268;-77
2022/05/31 07:18:38;;;;;;;;;;;;;;;21.58;31.05;97942.63;4770728;30;978;-77
2022/05/31 07:21:04;;;;;;;;;;;;;;;21.50;31.42;97935.56;4789062;30;1229;-76
2022/05/31 07:23:29;;;;;;;;;;;;;;;21.34;31.38;97939.22;4752977;30;1984;-77
2022/05/31 07:26:02;;;;;;;;;;;;;;;21.47;31.12;97942.13;4752842;30;1451;-77
2022/05/31 07:28:28;;;;;;;;;;;;;;;21.30;31.08;97933.69;4728446;30;1232;-77
2022/05/31 07:30:57;;;;;;;;;;;;;;;21.37;31.08;97932.69;4732125;30;1062;-77
2022/05/31 07:33:24;;;;;;;;;;;;;;;21.43;31.09;97944.25;4753117;30;1282;-77
2022/05/31 07:35:52;;;;;;;;;;;;;;;21.41;30.92;97943.94;4752804;30;1406;-77
2022/05/31 07:38:19;;;;;;;;;;;;;;;21.43;30.74;97941.44;4763531;29;1019;-77
2022/05/31 07:40:46;;;;;;;;;;;;;;;21.25;31.31;97939.84;4803573;29;1398;-77
2022/05/31 07:43:11;;;;;;;;;;;;;;;21.38;30.71;97939.16;4803583;29;1915;-76
2022/05/31 07:45:37;;;;;;;;;;;;;;;21.43;30.78;97942.22;4803685;29;1404;-76
2022/05/31 07:48:05;;;;;;;;;;;;;;;21.20;30.94;97934.72;4770356;30;1144;-77
2022/05/31 07:50:31;;;;;;;;;;;;;;;21.17;31.01;97929.94;4746970;30;1115;-77
2022/05/31 07:53:16;;;;;;;;;;;;;;;21.22;31.17;97926.56;4717981;30;958;-76
2022/05/31 07:56:01;;;;;;;;;;;;;;;21.13;30.94;97929.22;4734015;30;988;-77
2022/05/31 07:58:52;;;;;;;;;;;;;;;21.23;31.04;97933.03;4770267;30;1153;-76
2022/05/31 08:01:36;;;;;;;;;;;;;;;21.32;30.67;97936.84;4770323;30;1965;-77
2022/05/31 08:04:14;;;;;;;;;;;;;;;21.29;30.76;97934.88;4763539;30;1452;-77
2022/05/31 08:06:39;;;;;;;;;;;;;;;21.35;30.79;97934.34;4788505;29;905;-77
2022/05/31 08:09:05;;;;;;;;;;;;;;;21.19;30.90;97935.97;4788692;29;971;-76
2022/05/31 08:11:31;;;;;;;;;;;;;;;21.28;30.74;97940.97;4788385;29;965;-77
2022/05/31 08:13:56;;;;;;;;;;;;;;;21.20;31.05;97934.72;4804162;29;1230;-77
2022/05/31 08:16:22;;;;;;;;;;;;;;;21.37;30.90;97938.34;4809692;29;1283;-76
2022/05/31 08:18:48;;;;;;;;;;;;;;;21.24;30.85;97935.44;4810078;29;966;-77
2022/05/31 08:21:15;;;;;;;;;;;;;;;21.25;30.79;97939.84;4809866;29;975;-77
2022/05/31 08:23:40;;;;;;;;;;;;;;;21.37;30.56;97931.91;4816529;29;1911;-76
2022/05/31 08:26:06;;;;;;;;;;;;;;;21.28;30.58;97936.13;4827734;29;951;-76
2022/05/31 08:28:31;;;;;;;;;;;;;;;21.31;30.61;97938.09;4841122;29;1017;-77
2022/05/31 08:30:58;;;;;;;;;;;;;;;21.33;30.46;97929.94;4846486;29;1058;-77
2022/05/31 08:33:25;;;;;;;;;;;;;;;21.19;30.65;97932.31;4846169;29;968;-77
2022/05/31 08:35:50;;;;;;;;;;;;;;;21.16;30.75;97936.06;4888308;29;1004;-76
2022/05/31 08:38:16;;;;;;;;;;;;;;;21.13;31.01;97923.56;4920583;29;1008;-77
2022/05/31 08:40:51;;;;;;;;;;;;;;;21.21;30.79;97933.47;4921083;29;1079;-77
2022/05/31 08:43:16;;;;;;;;;;;;;;;21.75;30.82;97927.19;4939273;29;2009;-76
2022/05/31 08:45:47;;;;;;;;;;;;;;;21.87;30.86;97930.53;4939847;29;942;-76
2022/05/31 08:48:26;;;;;;;;;;;;;;;21.83;31.22;97934.25;4923834;29;964;-76
2022/05/31 08:56:56;;;;;;;;;;;;;;;21.47;31.17;97931.59;4924776;29;1049;-77
2022/05/31 08:56:56;;;;;;;;;;;;;;;21.45;31.15;97933.28;4945333;29;1126;-76
2022/05/31 08:59:24;;;;;;;;;;;;;;;21.44;31.21;97931.69;4933726;29;1323;-77
2022/05/31 09:01:53;;;;;;;;;;;;;;;21.23;31.64;97933.03;4939301;29;1895;-77
2022/05/31 09:04:23;;;;;;;;;;;;;;;21.26;31.39;97927.28;4923780;29;1040;-76
2022/05/31 09:06:55;;;;;;;;;;;;;;;21.37;31.06;97931.91;4882520;29;955;-77
2022/05/31 09:09:26;;;;;;;;;;;;;;;21.45;30.84;97938.94;4882555;29;960;-77
2022/05/31 09:12:05;;;;;;;;;;;;;;;21.43;30.87;97933.72;4900934;29;1060;-76
2022/05/31 09:14:42;;;;;;;;;;;;;;;21.37;31.06;97932.69;4901457;29;928;-77
2022/05/31 09:17:09;;;;;;;;;;;;;;;21.39;30.89;97935.06;4884139;29;1198;-77
2022/05/31 09:19:49;;;;;;;;;;;;;;;21.39;31.03;97935.06;4876665;29;1221;-76
2022/05/31 09:22:14;;;;;;;;;;;;;;;21.24;31.44;97931.78;4906436;29;1972;-77
2022/05/31 09:24:41;;;;;;;;;;;;;;;21.25;31.13;97931.38;4938506;29;1350;-77
2022/05/31 09:27:08;;;;;;;;;;;;;;;21.29;31.09;97932.03;4938571;29;1326;-77
2022/05/31 09:29:43;;;;;;;;;;;;;;;21.26;31.02;97927.28;4938402;29;1254;-77
2022/05/31 09:32:09;;;;;;;;;;;;;;;21.37;31.25;97937.56;4900350;29;1288;-77
2022/05/31 09:34:43;;;;;;;;;;;;;;;21.25;31.42;97930.56;4900461;29;1240;-76
2022/05/31 09:37:20;;;;;;;;;;;;;;;21.27;31.21;97926.03;4901458;29;1245;-76
2022/05/31 09:40:04;;;;;;;;;;;;;;;21.26;31.00;97926.50;4907597;29;1265;-76
2022/05/31 09:42:32;;;;;;;;;;;;;;;21.26;31.15;97926.50;4915319;29;1895;-77
2022/05/31 09:45:04;;;;;;;;;;;;;;;21.17;31.61;97927.13;4908924;29;1284;-77
2022/05/31 09:47:30;;;;;;;;;;;;;;;21.26;31.09;97915.97;4911666;29;1256;-77
2022/05/31 09:49:55;;;;;;;;;;;;;;;21.24;31.50;97924.13;4937497;29;1364;-76
2022/05/31 09:52:22;;;;;;;;;;;;;;;21.38;31.20;97930.66;4949684;29;1338;-76
2022/05/31 09:58:36;;;;;;;;;;;;;;;21.12;31.38;97927.66;4944925;29;1163;-76
2022/05/31 10:01:21;;;;;;;;;;;;;;;21.21;31.27;97925.00;4948504;29;1255;-76
2022/05/31 10:03:54;;;;;;;;;;;;;;;21.29;31.26;97922.75;4962122;28;1899;-76
2022/05/31 10:06:23;;;;;;;;;;;;;;;21.19;31.44;97918.16;4985109;28;1215;-76
2022/05/31 10:08:51;;;;;;;;;;;;;;;21.33;31.04;97921.47;4986090;28;1348;-76
2022/05/31 10:11:23;;;;;;;;;;;;;;;21.31;31.15;97923.94;4955087;28;1236;-77
2022/05/31 10:13:58;;;;;;;;;;;;;;;21.20;31.31;97920.56;4969262;28;1968;-77
2022/05/31 10:16:25;;;;;;;;;;;;;;;21.15;31.32;97926.78;4997627;28;1188;-76
2022/05/31 10:18:52;;;;;;;;;;;;;;;21.21;31.24;97918.53;5007564;28;1284;-77
2022/05/31 10:21:30;;;;;;;;;;;;;;;21.31;30.95;97928.81;5005947;28;1633;-77
2022/05/31 10:23:59;;;;;;;;;;;;;;;21.26;31.43;97918.00;5007137;28;1210;-77
2022/05/31 10:26:43;;;;;;;;;;;;;;;21.28;31.08;97924.78;4993778;28;1144;-77
2022/05/31 10:29:29;;;;;;;;;;;;;;;21.25;31.10;97917.22;5008135;28;1147;-76
2022/05/31 10:32:41;;;;;;;;;;;;;;;21.16;31.16;97917.03;4908202;29;1370;-77
2022/05/31 10:35:09;;;;;;;;;;;;;;;21.36;31.06;97922.63;4888577;29;1209;-76
2022/05/31 10:37:34;;;;;;;;;;;;;;;21.25;31.21;97914.38;4889859;29;1225;-76
2022/05/31 10:40:07;;;;;;;;;;;;;;;21.24;31.31;97912.81;4890267;29;1245;-76
2022/05/31 10:42:33;;;;;;;;;;;;;;;21.43;30.77;97907.47;4887358;29;1981;-76
2022/05/31 10:45:02;;;;;;;;;;;;;;;21.30;30.88;97910.25;4870833;29;1245;-77
2022/05/31 10:47:28;;;;;;;;;;;;;;;21.26;30.88;97907.47;4861598;29;1309;-76
2022/05/31 10:49:53;;;;;;;;;;;;;;;21.51;30.83;97903.22;4861891;29;1269;-76
2022/05/31 10:52:29;;;;;;;;;;;;;;;21.38;31.13;97910.84;4862089;29;1236;-76
2022/05/31 10:55:06;;;;;;;;;;;;;;;21.19;31.39;97910.50;4857203;29;1203;-77
2022/05/31 10:57:48;;;;;;;;;;;;;;;21.33;31.09;97906.50;4859539;29;1206;-76
2022/05/31 11:00:20;;;;;;;;;;;;;;;21.18;31.01;97908.91;4859751;29;1363;-77
2022/05/31 11:02:59;;;;;;;;;;;;;;;21.18;30.98;97906.06;4869854;29;1895;-77
2022/05/31 11:05:36;;;;;;;;;;;;;;;21.14;31.44;97911.03;4884317;29;1264;-76
2022/05/31 11:13:47;;;;;;;;;;;;;;;21.12;30.92;97895.75;4956473;29;935;-77
2022/05/31 11:16:18;;;;;;;;;;;;;;;21.32;30.72;97908.56;4967592;28;1109;-77
2022/05/31 11:18:45;;;;;;;;;;;;;;;21.23;30.98;97899.88;4959373;28;973;-77
2022/05/31 11:21:21;;;;;;;;;;;;;;;21.38;30.50;97894.66;4975597;28;990;-77
2022/05/31 11:23:58;;;;;;;;;;;;;;;21.32;30.57;97900.06;4957756;28;1907;-77
2022/05/31 11:26:35;;;;;;;;;;;;;;;21.23;30.75;97905.53;4994709;28;1063;-77
2022/05/31 11:29:11;;;;;;;;;;;;;;;21.13;31.22;97895.28;4994536;28;1074;-77
2022/05/31 11:32:09;;;;;;;;;;;;;;;21.35;30.72;97894.75;4955582;29;1528;-77
2022/05/31 11:34:35;;;;;;;;;;;;;;;21.23;30.88;97884.94;4898842;29;997;-77
2022/05/31 11:37:19;;;;;;;;;;;;;;;21.21;30.91;97885.38;4898812;29;1036;-77
2022/05/31 11:39:56;;;;;;;;;;;;;;;21.15;31.37;97881.50;4898791;29;965;-76
2022/05/31 11:42:39;;;;;;;;;;;;;;;21.12;31.17;97881.59;4860916;29;1907;-74
2022/05/31 11:45:08;;;;;;;;;;;;;;;21.32;31.33;97880.25;4861260;29;932;-74
2022/05/31 11:47:51;;;;;;;;;;;;;;;21.37;31.04;97878.13;4863316;29;1082;-74
2022/05/31 11:50:26;;;;;;;;;;;;;;;21.20;31.21;97878.13;4865071;29;975;-74
2022/05/31 11:53:03;;;;;;;;;;;;;;;21.17;31.34;97876.19;4865252;29;1105;-74
2022/05/31 11:55:28;;;;;;;;;;;;;;;21.18;31.20;97868.50;4850694;29;1068;-74
2022/05/31 11:58:08;;;;;;;;;;;;;;;21.26;31.17;97859.38;4846357;29;1051;-74
2022/05/31 12:00:38;;;;;;;;;;;;;;;21.23;31.00;97860.25;4818385;29;941;-74
2022/05/31 12:03:12;;;;;;;;;;;;;;;21.27;30.88;97860.16;4858520;29;1918;-74
2022/05/31 12:05:40;;;;;;;;;;;;;;;21.25;30.83;97859.81;4865301;29;942;-74
2022/05/31 12:08:16;;;;;;;;;;;;;;;21.40;30.51;97857.41;4846415;29;1045;-75
2022/05/31 12:10:42;;;;;;;;;;;;;;;21.26;30.76;97853.72;4849298;29;995;-74
2022/05/31 12:13:08;;;;;;;;;;;;;;;21.20;30.82;97855.50;4887753;29;990;-75
2022/05/31 12:15:34;;;;;;;;;;;;;;;21.18;30.86;97852.31;4921179;29;978;-74
2022/05/31 12:18:18;;;;;;;;;;;;;;;21.27;30.91;97848.84;4921136;29;1245;-74
2022/05/31 12:20:44;;;;;;;;;;;;;;;21.31;30.48;97833.38;4921014;29;1012;-74
2022/05/31 12:23:17;;;;;;;;;;;;;;;21.61;30.67;97845.50;4921431;29;1927;-74
2022/05/31 12:25:44;;;;;;;;;;;;;;;21.78;31.21;97855.50;4921194;29;1005;-74
2022/05/31 12:28:18;;;;;;;;;;;;;;;21.99;31.33;97854.06;4905634;29;1402;-77
2022/05/31 12:30:50;;;;;;;;;;;;;;;21.75;31.45;97850.72;4920775;29;964;-77
2022/05/31 12:33:26;;;;;;;;;;;;;;;21.49;32.02;97849.84;4901832;29;928;-77
2022/05/31 12:35:53;;;;;;;;;;;;;;;21.41;31.99;97844.88;4920527;29;1067;-77
2022/05/31 12:38:18;;;;;;;;;;;;;;;21.56;31.54;97843.22;4904998;29;1025;-77
2022/05/31 12:40:51;;;;;;;;;;;;;;;21.43;31.93;97846.00;4905235;29;1622;-77
2022/05/31 12:43:36;;;;;;;;;;;;;;;21.51;31.61;97843.75;4882741;29;1970;-77
2022/05/31 12:46:20;;;;;;;;;;;;;;;21.39;31.77;97838.84;4883076;29;979;-77
2022/05/31 12:48:55;;;;;;;;;;;;;;;21.32;31.80;97837.78;4882833;29;1051;-76
2022/05/31 12:51:21;;;;;;;;;;;;;;;21.37;31.35;97847.00;4882507;29;1015;-77
2022/05/31 12:54:12;;;;;;;;;;;;;;;21.31;31.40;97844.72;4845477;29;1253;-76
2022/05/31 12:56:39;;;;;;;;;;;;;;;21.26;31.46;97831.06;4863763;29;1054;-77
2022/05/31 12:59:05;;;;;;;;;;;;;;;21.33;31.52;97832.94;4844626;29;1059;-74
2022/05/31 13:01:32;;;;;;;;;;;;;;;21.38;31.19;97834.41;4860924;29;1178;-74
2022/05/31 13:04:07;;;;;;;;;;;;;;;21.46;30.96;97827.31;4845290;29;1981;-74
2022/05/31 13:06:53;;;;;;;;;;;;;;;21.54;30.67;97834.34;4838778;29;1004;-74
2022/05/31 13:09:24;;;;;;;;;;;;;;;21.55;30.75;97835.94;4826904;29;1040;-77
2022/05/31 13:19:34;;;;;;;;;;;;;;;21.12;31.17;97825.00;4849463;29;1024;-77
2022/05/31 13:21:11;;;;;;;;;;;;;;;21.42;30.90;97826.63;4863248;29;1037;-76
2022/05/31 13:23:44;;;;;;;;;;;;;;;21.30;30.81;97819.69;4808815;29;1915;-76
2022/05/31 13:26:20;;;;;;;;;;;;;;;21.46;30.40;97824.50;4808516;29;975;-77
2022/05/31 13:28:59;;;;;;;;;;;;;;;21.34;30.60;97826.03;4826552;29;1040;-77
2022/05/31 13:31:25;;;;;;;;;;;;;;;21.17;30.87;97827.28;4776169;30;995;-77
2022/05/31 13:33:57;;;;;;;;;;;;;;;21.24;31.03;97822.25;4832298;29;1143;-77
2022/05/31 13:36:23;;;;;;;;;;;;;;;21.29;30.67;97820.88;4863070;29;1498;-76
2022/05/31 13:38:49;;;;;;;;;;;;;;;21.28;30.87;97814.44;4863185;29;994;-76
2022/05/31 13:41:15;;;;;;;;;;;;;;;21.30;30.54;97820.47;4863244;29;948;-77
2022/05/31 13:43:40;;;;;;;;;;;;;;;21.24;30.85;97816.59;4826384;29;1892;-76
2022/05/31 13:46:16;;;;;;;;;;;;;;;21.33;30.61;97813.91;4826405;29;1278;-77
2022/05/31 13:48:42;;;;;;;;;;;;;;;21.27;30.81;97810.00;4826721;29;1063;-77
2022/05/31 13:51:10;;;;;;;;;;;;;;;21.38;30.80;97821.06;4824140;29;1251;-77
2022/05/31 13:53:39;;;;;;;;;;;;;;;21.29;30.85;97818.06;4829201;29;939;-77